Time;durP1;ratioP1;P1;durP2;ratioP2;P2;SDS_P1;SDS_P2;PMS_P1;PMS_P2;Temp;Humidity;BMP_temperature;BMP_pressure;BME280_temperature;BME280_humidity;BME280_pressure;Samples;Min_cycle;Max_cycle;Signal;HPM_P1;HPM_P2
2022/10/10 00:02:18;;;;;;;;;;;;;;;10.18;65.50;98200.72;5028010;28;20024;-57
2022/10/10 00:04:47;;;;;;;;;;;;;;;10.20;65.67;98208.56;5028986;28;19933;-57
2022/10/10 00:07:14;;;;;;;;;;;;;;;10.04;66.17;98207.25;5021909;28;20421;-56
2022/10/10 00:09:43;;;;;;;;;;;;;;;10.12;65.77;98201.13;5025957;28;19976;-57
2022/10/10 00:12:11;;;;;;;;;;;;;;;10.11;66.06;98207.66;5029541;28;19947;-57
2022/10/10 00:14:39;;;;;;;;;;;;;;;10.13;65.96;98205.47;5022099;28;20322;-56
2022/10/10 00:17:07;;;;;;;;;;;;;;;10.12;66.07;98204.66;5026960;28;19959;-57
2022/10/10 00:19:35;;;;;;;;;;;;;;;10.13;66.04;98213.59;5022690;28;19929;-56
2022/10/10 00:22:02;;;;;;;;;;;;;;;10.11;65.91;98207.66;5021749;28;19926;-56
2022/10/10 00:24:30;;;;;;;;;;;;;;;10.10;66.19;98197.91;5023022;28;20413;-56
2022/10/10 00:26:59;;;;;;;;;;;;;;;10.08;66.57;98202.84;5020332;28;19925;-56
2022/10/10 00:29:27;;;;;;;;;;;;;;;10.09;66.61;98197.09;4998598;28;20282;-57
2022/10/10 00:32:00;;;;;;;;;;;;;;;10.07;66.25;98201.25;5016591;28;19964;-56
2022/10/10 00:34:28;;;;;;;;;;;;;;;10.06;66.30;98194.16;5017832;28;19931;-57
2022/10/10 00:36:56;;;;;;;;;;;;;;;10.04;66.39;98191.78;5018506;28;19925;-57
2022/10/10 00:39:24;;;;;;;;;;;;;;;10.02;66.62;98187.75;5022933;28;19925;-57
2022/10/10 00:41:53;;;;;;;;;;;;;;;9.87;67.03;98186.94;5019444;28;19932;-56
2022/10/10 00:44:22;;;;;;;;;;;;;;;9.95;66.94;98186.22;5023617;28;19929;-56
2022/10/10 00:46:50;;;;;;;;;;;;;;;9.99;66.86;98191.88;5013304;28;20020;-57
2022/10/10 00:49:19;;;;;;;;;;;;;;;9.97;66.82;98185.94;5020681;28;20500;-56
2022/10/10 00:51:47;;;;;;;;;;;;;;;9.92;66.80;98189.56;5007352;28;19932;-57
2022/10/10 00:54:16;;;;;;;;;;;;;;;9.95;66.74;98182.72;5024532;28;19925;-56
2022/10/10 00:56:46;;;;;;;;;;;;;;;9.96;66.81;98181.63;5018624;28;20390;-57
2022/10/10 00:59:14;;;;;;;;;;;;;;;9.97;66.80;98180.50;5022373;28;20086;-57
2022/10/10 01:01:44;;;;;;;;;;;;;;;9.96;66.70;98174.28;5027145;28;19929;-57
2022/10/10 01:04:37;;;;;;;;;;;;;;;9.97;66.84;98181.31;5026357;28;19950;-56
2022/10/10 01:07:11;;;;;;;;;;;;;;;10.02;66.60;98182.34;5017662;28;19960;-56
2022/10/10 01:09:39;;;;;;;;;;;;;;;10.00;67.04;98179.09;5011232;28;19960;-56
2022/10/10 01:12:12;;;;;;;;;;;;;;;9.99;66.91;98175.56;5018358;28;19928;-57
2022/10/10 01:14:41;;;;;;;;;;;;;;;9.94;66.88;98171.03;5030009;28;19972;-56
2022/10/10 01:17:12;;;;;;;;;;;;;;;9.96;66.84;98173.47;5011528;28;20027;-56
2022/10/10 01:19:59;;;;;;;;;;;;;;;9.97;66.72;98173.16;5025240;28;19925;-56
2022/10/10 01:22:29;;;;;;;;;;;;;;;9.97;67.02;98169.66;5016854;28;20045;-57
2022/10/10 01:24:58;;;;;;;;;;;;;;;10.02;67.01;98163.34;5014517;28;19943;-56
2022/10/10 01:27:27;;;;;;;;;;;;;;;9.98;66.82;98160.41;5023454;28;20469;-56
2022/10/10 01:30:01;;;;;;;;;;;;;;;9.88;67.01;98166.81;5022451;28;19929;-57
2022/10/10 01:38:23;;;;;;;;;;;;;;;9.91;66.88;98158.09;5011589;28;19926;-56
2022/10/10 01:41:16;;;;;;;;;;;;;;;9.92;67.07;98162.41;5005344;28;19926;-56
2022/10/10 01:43:44;;;;;;;;;;;;;;;9.92;67.02;98156.97;5002931;28;19933;-56
2022/10/10 01:46:14;;;;;;;;;;;;;;;9.90;67.20;98164.59;5007985;28;20322;-56
2022/10/10 01:48:43;;;;;;;;;;;;;;;9.87;67.21;98161.72;5006942;28;19930;-56
2022/10/10 01:51:23;;;;;;;;;;;;;;;9.86;67.45;98163.63;5007379;28;19925;-56
2022/10/10 01:53:53;;;;;;;;;;;;;;;9.71;67.54;98161.19;5004953;28;19936;-56
2022/10/10 01:56:30;;;;;;;;;;;;;;;9.76;67.76;98154.88;5007646;28;19925;-57
2022/10/10 01:59:02;;;;;;;;;;;;;;;9.76;67.57;98157.56;5002783;28;19925;-56
2022/10/10 02:01:33;;;;;;;;;;;;;;;9.67;68.16;98155.53;5002388;28;19926;-57
2022/10/10 02:04:02;;;;;;;;;;;;;;;9.69;68.03;98150.63;5007714;28;19933;-56
2022/10/10 02:06:31;;;;;;;;;;;;;;;9.70;67.81;98149.53;5004511;28;20020;-56
2022/10/10 02:09:00;;;;;;;;;;;;;;;9.70;67.89;98154.97;5003142;28;19925;-57
2022/10/10 02:11:28;;;;;;;;;;;;;;;9.69;67.94;98147.09;5002072;28;19933;-56
2022/10/10 02:13:57;;;;;;;;;;;;;;;9.69;68.48;98149.81;5002551;28;19926;-56
2022/10/10 02:16:26;;;;;;;;;;;;;;;9.66;68.04;98153.13;5004984;28;19926;-57
2022/10/10 02:18:56;;;;;;;;;;;;;;;9.70;68.12;98146.00;5009150;28;19933;-56
2022/10/10 02:21:24;;;;;;;;;;;;;;;9.66;68.07;98148.50;5008870;28;19925;-56
2022/10/10 02:23:52;;;;;;;;;;;;;;;9.67;68.26;98143.88;5013953;28;19957;-57
2022/10/10 02:26:20;;;;;;;;;;;;;;;9.66;68.08;98142.28;5012525;28;19975;-57
2022/10/10 02:28:49;;;;;;;;;;;;;;;9.67;68.11;98143.88;5010252;28;19925;-56
2022/10/10 02:31:19;;;;;;;;;;;;;;;9.66;68.14;98142.28;5012935;28;20020;-56
2022/10/10 02:33:47;;;;;;;;;;;;;;;9.64;68.14;98139.88;4987842;28;19940;-57
2022/10/10 02:36:16;;;;;;;;;;;;;;;9.61;68.27;98131.53;5010797;28;19956;-56
2022/10/10 02:38:46;;;;;;;;;;;;;;;9.59;68.44;98125.59;5009974;28;20477;-56
2022/10/10 02:41:16;;;;;;;;;;;;;;;9.38;69.17;98130.59;4996114;28;20121;-56
2022/10/10 02:43:43;;;;;;;;;;;;;;;9.45;69.06;98131.00;5028782;28;20539;-57
2022/10/10 02:46:12;;;;;;;;;;;;;;;9.49;68.82;98132.03;5014066;28;19925;-56
2022/10/10 02:48:40;;;;;;;;;;;;;;;9.50;68.96;98132.81;5007594;28;20434;-57
2022/10/10 02:51:10;;;;;;;;;;;;;;;9.50;68.83;98132.81;5021669;28;19929;-56
2022/10/10 02:53:40;;;;;;;;;;;;;;;9.48;68.62;98129.59;5012576;28;19936;-57
2022/10/10 02:56:07;;;;;;;;;;;;;;;9.45;68.79;98131.00;5005114;28;19959;-56
2022/10/10 02:58:35;;;;;;;;;;;;;;;9.44;68.81;98127.47;5011786;28;19941;-56
2022/10/10 03:01:03;;;;;;;;;;;;;;;9.46;68.55;98127.19;5014306;28;19925;-57
2022/10/10 03:03:31;;;;;;;;;;;;;;;9.45;69.12;98126.38;5010161;28;19937;-56
2022/10/10 03:05:59;;;;;;;;;;;;;;;9.46;68.76;98127.19;5017426;28;19926;-56
2022/10/10 03:08:26;;;;;;;;;;;;;;;9.44;69.05;98132.09;5016241;28;19957;-57
2022/10/10 03:10:57;;;;;;;;;;;;;;;9.36;69.33;98124.63;5012939;28;19934;-56
2022/10/10 03:13:25;;;;;;;;;;;;;;;9.41;69.12;98130.78;5010263;28;19932;-56
2022/10/10 03:15:52;;;;;;;;;;;;;;;9.44;69.43;98127.47;5010299;28;19949;-57
2022/10/10 03:18:20;;;;;;;;;;;;;;;9.42;69.07;98126.97;5013201;28;19948;-57
2022/10/10 03:20:50;;;;;;;;;;;;;;;9.36;69.15;98132.78;5005500;28;19932;-57
2022/10/10 03:26:11;;;;;;;;;;;;;;;9.38;69.28;98130.59;5017944;28;19925;-57
2022/10/10 03:28:39;;;;;;;;;;;;;;;9.35;69.26;98131.97;5009385;28;19925;-57
2022/10/10 03:31:07;;;;;;;;;;;;;;;9.33;69.35;98127.97;5006580;28;19931;-56
2022/10/10 03:33:35;;;;;;;;;;;;;;;9.37;69.49;98135.19;5014240;28;19933;-56
2022/10/10 03:36:03;;;;;;;;;;;;;;;9.42;69.53;98123.44;5010518;28;19940;-56
2022/10/10 03:38:32;;;;;;;;;;;;;;;9.44;69.42;98130.19;5010136;28;20380;-56
2022/10/10 03:41:00;;;;;;;;;;;;;;;9.44;69.37;98130.19;5020567;28;19933;-56
2022/10/10 03:43:29;;;;;;;;;;;;;;;9.43;69.25;98134.00;5020403;28;19932;-56
2022/10/10 03:45:57;;;;;;;;;;;;;;;9.41;69.39;98124.56;5029195;28;19929;-56
2022/10/10 03:48:25;;;;;;;;;;;;;;;9.43;69.26;98120.47;5021303;28;19930;-56
2022/10/10 03:50:53;;;;;;;;;;;;;;;9.42;69.36;98123.44;5014708;28;19932;-57
2022/10/10 03:53:45;;;;;;;;;;;;;;;9.40;69.58;98122.94;5020544;28;19933;-56
2022/10/10 03:56:14;;;;;;;;;;;;;;;9.38;69.62;98120.53;5022147;28;19925;-56
2022/10/10 03:58:43;;;;;;;;;;;;;;;9.41;69.56;98121.84;5006157;28;19953;-57
2022/10/10 04:01:11;;;;;;;;;;;;;;;9.43;69.45;98111.53;5020000;28;19960;-56
2022/10/10 04:03:40;;;;;;;;;;;;;;;9.41;69.46;98125.34;5013773;28;19925;-57
2022/10/10 04:06:08;;;;;;;;;;;;;;;9.40;69.57;98121.03;5026855;28;20660;-57
2022/10/10 04:08:36;;;;;;;;;;;;;;;9.43;69.76;98125.06;5016446;28;19929;-57
2022/10/10 04:11:04;;;;;;;;;;;;;;;9.43;69.53;98119.66;5028007;28;19925;-56
2022/10/10 04:13:32;;;;;;;;;;;;;;;9.42;69.79;98126.16;5025677;28;19933;-56
2022/10/10 04:16:02;;;;;;;;;;;;;;;9.41;69.59;98125.34;5021625;28;19925;-56
2022/10/10 04:18:30;;;;;;;;;;;;;;;9.41;69.57;98129.97;5022775;28;19933;-56
2022/10/10 04:20:58;;;;;;;;;;;;;;;9.41;69.43;98128.06;5026165;28;19932;-56
2022/10/10 04:23:26;;;;;;;;;;;;;;;9.43;69.19;98128.59;5029004;28;19952;-56
2022/10/10 04:25:53;;;;;;;;;;;;;;;9.43;69.40;98125.88;5023560;28;19929;-57
2022/10/10 04:28:21;;;;;;;;;;;;;;;9.44;69.38;98116.63;5021017;28;19925;-57
2022/10/10 04:31:14;;;;;;;;;;;;;;;9.43;69.27;98122.38;5025632;28;19931;-57
2022/10/10 04:33:43;;;;;;;;;;;;;;;9.41;69.21;98125.34;5023809;28;19964;-56
2022/10/10 04:36:11;;;;;;;;;;;;;;;9.38;69.23;98125.16;5017789;28;19968;-57
2022/10/10 04:38:39;;;;;;;;;;;;;;;9.40;69.18;98115.63;5021763;28;19925;-57
2022/10/10 04:41:08;;;;;;;;;;;;;;;9.42;69.21;98126.16;5022023;28;20436;-57
2022/10/10 04:43:36;;;;;;;;;;;;;;;9.38;69.37;98123.25;5024754;28;19932;-57
2022/10/10 04:46:04;;;;;;;;;;;;;;;9.42;69.27;98113.41;5021861;28;19932;-56
2022/10/10 04:48:32;;;;;;;;;;;;;;;9.39;69.40;98122.16;5027898;28;19929;-56
2022/10/10 04:51:02;;;;;;;;;;;;;;;9.40;69.66;98112.09;5024776;28;19931;-57
2022/10/10 04:53:30;;;;;;;;;;;;;;;9.38;69.47;98119.75;5017048;28;19926;-56
2022/10/10 04:56:03;;;;;;;;;;;;;;;9.38;69.64;98117.84;5035239;28;19932;-56
2022/10/10 04:58:31;;;;;;;;;;;;;;;9.35;69.59;98115.72;5031656;28;19933;-56
2022/10/10 05:00:59;;;;;;;;;;;;;;;9.32;69.97;98116.31;5016618;28;19933;-56
2022/10/10 05:03:27;;;;;;;;;;;;;;;9.31;69.90;98117.41;5021444;28;19951;-56
2022/10/10 05:05:57;;;;;;;;;;;;;;;9.30;70.11;98121.22;5027937;28;20183;-56
2022/10/10 05:08:29;;;;;;;;;;;;;;;9.30;70.01;98113.09;5007012;28;19925;-58
2022/10/10 05:10:57;;;;;;;;;;;;;;;9.29;70.09;98118.81;5018514;28;19925;-56
2022/10/10 05:13:25;;;;;;;;;;;;;;;9.27;70.14;98129.97;5019166;28;19926;-56
2022/10/10 05:15:53;;;;;;;;;;;;;;;9.26;70.00;98120.19;5021747;28;19967;-56
2022/10/10 05:18:21;;;;;;;;;;;;;;;9.26;70.46;98116.69;5025331;28;19925;-57
2022/10/10 05:20:49;;;;;;;;;;;;;;;9.21;70.24;98124.91;5022479;28;19950;-56
2022/10/10 05:23:17;;;;;;;;;;;;;;;9.17;70.44;98125.50;5023545;28;19932;-56
2022/10/10 05:25:47;;;;;;;;;;;;;;;9.21;70.49;98123.00;5023597;28;19964;-56
2022/10/10 05:28:15;;;;;;;;;;;;;;;9.22;70.61;98121.13;5027100;28;19956;-56
2022/10/10 05:30:43;;;;;;;;;;;;;;;9.22;70.50;98119.19;5021480;28;19995;-56
2022/10/10 05:33:12;;;;;;;;;;;;;;;9.21;70.41;98120.28;5023341;28;19925;-56
2022/10/10 05:35:41;;;;;;;;;;;;;;;9.24;70.32;98125.13;5027902;28;19929;-57
2022/10/10 05:38:09;;;;;;;;;;;;;;;9.21;70.59;98127.59;5021186;28;19926;-57
2022/10/10 05:40:38;;;;;;;;;;;;;;;9.24;70.59;98125.13;5015408;28;19940;-56
2022/10/10 05:43:07;;;;;;;;;;;;;;;9.22;70.71;98130.03;5010177;28;20306;-57
2022/10/10 05:45:35;;;;;;;;;;;;;;;9.28;70.39;98126.13;5005351;28;20466;-57
2022/10/10 05:48:04;;;;;;;;;;;;;;;9.29;70.37;98133.16;5008054;28;19990;-57
2022/10/10 05:50:32;;;;;;;;;;;;;;;9.28;70.12;98126.13;5007442;28;19939;-56
2022/10/10 05:53:03;;;;;;;;;;;;;;;9.34;70.39;98133.09;5005494;28;19926;-56
2022/10/10 05:55:31;;;;;;;;;;;;;;;9.34;70.48;98135.00;5007206;28;19948;-56
2022/10/10 05:57:59;;;;;;;;;;;;;;;9.37;70.47;98135.19;5004051;28;19925;-57
2022/10/10 06:00:30;;;;;;;;;;;;;;;9.41;70.23;98130.78;5004826;28;20536;-56
2022/10/10 06:02:58;;;;;;;;;;;;;;;9.40;70.08;98140.03;5007965;28;19926;-56
2022/10/10 06:05:26;;;;;;;;;;;;;;;9.43;70.04;98139.44;5002035;28;19929;-57
2022/10/10 06:07:54;;;;;;;;;;;;;;;9.45;70.09;98139.13;5008076;28;19929;-56
2022/10/10 06:10:40;;;;;;;;;;;;;;;9.43;70.03;98136.72;5008382;28;20478;-57
2022/10/10 06:13:32;;;;;;;;;;;;;;;9.40;70.05;98139.22;5005381;28;19964;-57
2022/10/10 06:16:02;;;;;;;;;;;;;;;9.44;70.19;98141.03;5005744;28;20075;-56
2022/10/10 06:18:30;;;;;;;;;;;;;;;9.48;70.00;98140.44;5006693;28;19935;-57
2022/10/10 06:21:01;;;;;;;;;;;;;;;9.51;69.97;98137.13;5009456;28;19953;-57
2022/10/10 06:23:30;;;;;;;;;;;;;;;9.50;70.06;98133.63;5007865;28;20016;-56
2022/10/10 06:25:57;;;;;;;;;;;;;;;9.50;70.08;98133.63;5005730;28;19932;-57
2022/10/10 06:28:26;;;;;;;;;;;;;;;9.52;70.28;98142.25;5008347;28;19930;-57
2022/10/10 06:33:48;;;;;;;;;;;;;;;9.46;70.25;98138.03;5005255;28;20424;-56
2022/10/10 06:36:16;;;;;;;;;;;;;;;9.47;70.28;98146.97;5007447;28;19925;-57
2022/10/10 06:41:37;;;;;;;;;;;;;;;9.52;70.35;98146.88;5025071;28;19929;-57
2022/10/10 06:44:35;;;;;;;;;;;;;;;9.52;70.06;98155.81;5023634;28;19928;-57
2022/10/10 06:47:03;;;;;;;;;;;;;;;9.54;70.32;98155.53;5023105;28;20020;-57
2022/10/10 06:49:32;;;;;;;;;;;;;;;9.56;70.28;98158.75;5020255;28;19932;-56
2022/10/10 06:52:00;;;;;;;;;;;;;;;9.56;70.22;98161.44;5020893;28;19940;-56
2022/10/10 06:54:28;;;;;;;;;;;;;;;9.59;70.10;98167.09;5008578;28;20019;-56
2022/10/10 06:56:56;;;;;;;;;;;;;;;9.63;70.07;98159.16;5021375;28;19929;-57
2022/10/10 06:59:25;;;;;;;;;;;;;;;9.65;70.12;98156.97;5011741;28;20272;-56
2022/10/10 07:01:53;;;;;;;;;;;;;;;9.72;69.97;98165.50;5023357;28;19925;-57
2022/10/10 07:04:21;;;;;;;;;;;;;;;9.75;70.07;98161.38;5022892;28;20349;-56
2022/10/10 07:06:51;;;;;;;;;;;;;;;9.71;69.89;98161.19;5027765;28;19929;-57
2022/10/10 07:09:19;;;;;;;;;;;;;;;9.72;70.19;98165.50;5008561;28;19925;-57
2022/10/10 07:11:47;;;;;;;;;;;;;;;9.83;70.07;98164.22;5028363;28;19929;-56
2022/10/10 07:14:15;;;;;;;;;;;;;;;9.79;70.19;98165.09;5013314;28;19953;-57
2022/10/10 07:16:44;;;;;;;;;;;;;;;9.91;70.00;98177.09;5029085;28;19948;-56
2022/10/10 07:19:12;;;;;;;;;;;;;;;9.92;69.88;98178.69;5024069;28;19925;-56
2022/10/10 07:21:40;;;;;;;;;;;;;;;10.00;69.89;98181.81;5026697;28;19930;-57
2022/10/10 07:24:09;;;;;;;;;;;;;;;10.02;69.76;98175.00;5016034;28;19988;-57
2022/10/10 07:26:38;;;;;;;;;;;;;;;10.06;69.90;98177.88;5026197;28;20000;-57
2022/10/10 07:29:05;;;;;;;;;;;;;;;10.03;70.00;98173.88;5026453;28;19976;-56
2022/10/10 07:34:50;;;;;;;;;;;;;;;10.09;70.05;98182.72;5015045;28;19929;-56
2022/10/10 07:37:19;;;;;;;;;;;;;;;10.12;70.19;98179.41;5011526;28;19933;-57
2022/10/10 07:39:48;;;;;;;;;;;;;;;10.22;70.03;98176.47;5004887;28;19933;-57
2022/10/10 07:42:17;;;;;;;;;;;;;;;10.32;69.80;98184.44;5024228;28;19987;-57
2022/10/10 07:44:45;;;;;;;;;;;;;;;10.42;69.74;98192.41;5026020;28;19932;-56
2022/10/10 07:47:13;;;;;;;;;;;;;;;10.49;69.62;98200.97;5025092;28;19925;-56
2022/10/10 07:49:41;;;;;;;;;;;;;;;10.56;69.94;98202.47;5026202;28;19925;-56
2022/10/10 07:52:13;;;;;;;;;;;;;;;10.60;69.65;98203.44;5010311;28;19956;-57
2022/10/10 07:54:43;;;;;;;;;;;;;;;10.66;69.55;98200.31;5021763;28;19926;-57
2022/10/10 07:57:17;;;;;;;;;;;;;;;10.69;69.78;98202.41;5029432;28;19968;-57
2022/10/10 07:59:45;;;;;;;;;;;;;;;10.79;69.82;98212.28;5004602;28;20020;-56
2022/10/10 08:02:16;;;;;;;;;;;;;;;10.83;70.02;98210.56;5025616;28;20446;-57
2022/10/10 08:04:44;;;;;;;;;;;;;;;10.93;69.79;98207.63;5013499;28;20457;-57
2022/10/10 08:07:12;;;;;;;;;;;;;;;10.89;69.91;98201.19;5027112;28;20004;-56
2022/10/10 08:09:41;;;;;;;;;;;;;;;11.07;69.74;98201.31;5026742;28;19934;-56
2022/10/10 08:12:08;;;;;;;;;;;;;;;11.11;69.46;98200.41;5027557;28;19929;-57
2022/10/10 08:14:38;;;;;;;;;;;;;;;11.16;69.53;98203.00;5025899;28;19929;-57
2022/10/10 08:17:06;;;;;;;;;;;;;;;11.20;69.51;98205.94;5022135;28;19926;-57
2022/10/10 08:19:34;;;;;;;;;;;;;;;11.16;69.96;98210.38;5025751;28;19935;-56
2022/10/10 08:22:02;;;;;;;;;;;;;;;11.16;69.89;98207.66;5027402;28;20293;-57
2022/10/10 08:24:31;;;;;;;;;;;;;;;11.20;70.11;98211.38;5026221;28;19961;-56
2022/10/10 08:26:58;;;;;;;;;;;;;;;11.19;70.55;98209.75;5022518;28;20441;-57
2022/10/10 08:29:26;;;;;;;;;;;;;;;11.25;70.42;98211.25;5023036;28;19960;-57
2022/10/10 08:31:55;;;;;;;;;;;;;;;11.37;70.22;98207.97;5019162;28;20489;-57
2022/10/10 08:34:48;;;;;;;;;;;;;;;11.43;69.93;98204.81;5018643;28;19972;-57
2022/10/10 08:37:16;;;;;;;;;;;;;;;11.51;69.76;98206.81;5024227;28;20040;-57
2022/10/10 08:39:47;;;;;;;;;;;;;;;11.51;69.99;98208.72;5025010;28;19925;-57
2022/10/10 08:42:15;;;;;;;;;;;;;;;11.67;69.92;98209.94;5025570;28;19968;-56
2022/10/10 08:44:44;;;;;;;;;;;;;;;11.79;69.25;98207.44;5026034;28;19988;-56
2022/10/10 08:47:18;;;;;;;;;;;;;;;11.87;69.13;98197.72;5022621;28;19924;-56
2022/10/10 08:52:39;;;;;;;;;;;;;;;12.02;69.16;98199.25;5019070;28;19929;-57
2022/10/10 08:55:08;;;;;;;;;;;;;;;12.10;69.16;98190.34;5026220;28;19925;-57
2022/10/10 08:57:59;;;;;;;;;;;;;;;12.12;69.21;98193.53;5080494;27;19970;-58
2022/10/10 09:00:28;;;;;;;;;;;;;;;12.19;69.27;98193.88;5078805;28;20510;-58
2022/10/10 09:02:57;;;;;;;;;;;;;;;12.25;68.99;98197.25;5078574;28;19931;-58
2022/10/10 09:05:29;;;;;;;;;;;;;;;12.18;69.11;98196.91;5083379;28;20015;-58
2022/10/10 09:08:09;;;;;;;;;;;;;;;12.22;69.51;98197.91;5080991;28;20017;-56
2022/10/10 09:10:38;;;;;;;;;;;;;;;12.38;69.18;98201.81;5082168;28;19924;-56
2022/10/10 09:13:09;;;;;;;;;;;;;;;12.48;69.07;98209.69;5080704;28;19925;-56
2022/10/10 09:15:40;;;;;;;;;;;;;;;12.58;69.18;98209.41;5077615;28;19925;-56
2022/10/10 09:18:10;;;;;;;;;;;;;;;12.62;68.50;98215.00;5078788;28;19924;-57
2022/10/10 09:20:41;;;;;;;;;;;;;;;12.63;68.46;98207.66;5077826;28;19960;-57
2022/10/10 09:23:13;;;;;;;;;;;;;;;12.70;68.54;98202.53;5079488;28;19987;-56
2022/10/10 09:25:44;;;;;;;;;;;;;;;12.78;68.45;98205.28;5080549;28;20091;-56
2022/10/10 09:28:15;;;;;;;;;;;;;;;12.85;68.58;98204.81;5079937;28;20254;-56
2022/10/10 09:30:45;;;;;;;;;;;;;;;12.94;68.87;98211.06;5075278;28;20238;-56
2022/10/10 09:33:27;;;;;;;;;;;;;;;12.96;68.23;98200.66;5081721;28;19939;-56
2022/10/10 09:35:56;;;;;;;;;;;;;;;12.93;69.17;98201.28;5079285;28;19924;-57
2022/10/10 09:38:29;;;;;;;;;;;;;;;12.92;68.60;98204.31;5112908;28;20369;-58
2022/10/10 09:40:58;;;;;;;;;;;;;;;12.99;68.54;98201.91;5084480;28;19925;-57
2022/10/10 09:43:30;;;;;;;;;;;;;;;13.09;68.62;98198.88;5082528;28;19959;-57
2022/10/10 09:45:58;;;;;;;;;;;;;;;13.22;68.21;98194.44;5074811;28;19925;-57
2022/10/10 09:48:29;;;;;;;;;;;;;;;13.37;67.64;98199.41;5072065;28;19924;-56
2022/10/10 09:50:57;;;;;;;;;;;;;;;13.48;67.35;98200.69;5085284;28;20345;-57
2022/10/10 09:53:28;;;;;;;;;;;;;;;13.51;66.91;98196.47;5088442;28;19939;-57
2022/10/10 09:55:56;;;;;;;;;;;;;;;13.43;67.57;98195.38;5111053;28;19925;-57
2022/10/10 09:58:26;;;;;;;;;;;;;;;13.41;67.77;98203.06;5086695;28;19928;-57
2022/10/10 10:04:03;;;;;;;;;;;;;;;13.44;67.88;98207.91;5083537;28;19955;-57
2022/10/10 10:06:50;;;;;;;;;;;;;;;13.50;67.45;98209.34;5074107;28;19950;-57
2022/10/10 10:09:19;;;;;;;;;;;;;;;13.54;67.46;98209.50;5068720;28;19960;-57
2022/10/10 10:11:48;;;;;;;;;;;;;;;13.56;67.65;98205.31;5070109;28;19924;-57
2022/10/10 10:14:22;;;;;;;;;;;;;;;13.66;67.87;98206.09;5059132;28;19963;-57
2022/10/10 10:16:51;;;;;;;;;;;;;;;13.75;68.07;98215.09;5069329;28;19978;-57
2022/10/10 10:19:31;;;;;;;;;;;;;;;13.89;67.94;98212.94;5067868;28;20389;-56
2022/10/10 10:21:59;;;;;;;;;;;;;;;14.01;67.25;98215.00;5102799;28;19924;-57
2022/10/10 10:24:31;;;;;;;;;;;;;;;14.06;67.22;98218.38;5062729;28;20003;-57
2022/10/10 10:27:08;;;;;;;;;;;;;;;14.15;67.11;98213.66;5069832;28;19936;-57
2022/10/10 10:29:36;;;;;;;;;;;;;;;14.23;66.85;98216.72;5065491;28;20377;-57
2022/10/10 10:35:24;;;;;;;;;;;;;;;14.43;66.26;98213.22;5066045;28;19932;-57
2022/10/10 10:38:13;;;;;;;;;;;;;;;14.37;65.90;98206.34;5068970;28;19929;-57
2022/10/10 10:40:42;;;;;;;;;;;;;;;14.37;66.21;98214.53;5063655;28;20400;-57
2022/10/10 10:43:17;;;;;;;;;;;;;;;14.43;66.42;98205.03;5071017;28;19924;-57
2022/10/10 10:45:48;;;;;;;;;;;;;;;14.55;65.51;98204.38;5066073;28;19932;-57
2022/10/10 10:48:19;;;;;;;;;;;;;;;14.61;65.74;98209.31;5066525;28;19936;-57
2022/10/10 10:50:49;;;;;;;;;;;;;;;14.71;65.86;98210.06;5069043;28;19924;-57
2022/10/10 10:53:42;;;;;;;;;;;;;;;14.74;65.49;98212.13;5068801;28;19925;-57
2022/10/10 10:56:34;;;;;;;;;;;;;;;14.89;65.55;98211.56;5067331;28;20432;-57
2022/10/10 10:59:32;;;;;;;;;;;;;;;14.88;65.47;98205.28;5068448;28;19978;-57
2022/10/10 11:02:30;;;;;;;;;;;;;;;14.81;65.56;98199.56;5061209;28;19924;-57
2022/10/10 11:05:26;;;;;;;;;;;;;;;14.64;65.89;98203.16;5067911;28;19924;-57
2022/10/10 11:08:08;;;;;;;;;;;;;;;14.56;65.96;98201.31;5067094;28;19989;-57
2022/10/10 11:10:37;;;;;;;;;;;;;;;14.47;66.54;98197.81;5067449;28;20377;-57
2022/10/10 11:13:06;;;;;;;;;;;;;;;14.49;66.63;98195.56;5063040;28;19928;-57
2022/10/10 11:15:36;;;;;;;;;;;;;;;14.47;66.80;98195.06;5075461;28;19924;-56
2022/10/10 11:18:26;;;;;;;;;;;;;;;14.48;67.14;98193.94;5064052;28;19928;-56
2022/10/10 11:20:55;;;;;;;;;;;;;;;14.51;66.76;98196.03;5064984;28;20015;-57
2022/10/10 11:23:28;;;;;;;;;;;;;;;14.59;66.75;98205.28;5062529;28;20494;-57
2022/10/10 11:25:58;;;;;;;;;;;;;;;14.68;66.44;98200.59;5059569;28;19925;-57
2022/10/10 11:28:26;;;;;;;;;;;;;;;14.78;66.93;98192.00;5066062;28;19932;-56
2022/10/10 11:31:19;;;;;;;;;;;;;;;14.91;66.38;98190.97;5064495;28;19939;-57
2022/10/10 11:33:48;;;;;;;;;;;;;;;15.02;65.84;98193.28;5059677;28;19931;-57
2022/10/10 11:36:41;;;;;;;;;;;;;;;15.08;65.88;98192.75;5061633;28;20029;-57
2022/10/10 11:39:12;;;;;;;;;;;;;;;15.16;65.52;98191.88;5064726;28;20015;-58
2022/10/10 11:41:43;;;;;;;;;;;;;;;15.25;65.47;98194.56;5062491;28;19936;-57
2022/10/10 11:44:36;;;;;;;;;;;;;;;15.32;65.12;98191.28;5066365;28;19925;-57
2022/10/10 11:47:30;;;;;;;;;;;;;;;15.40;65.55;98184.94;5058080;28;19925;-57
2022/10/10 11:50:00;;;;;;;;;;;;;;;15.45;65.50;98187.47;5054652;28;19954;-57
2022/10/10 11:52:30;;;;;;;;;;;;;;;15.43;65.28;98179.56;5066206;28;19924;-57
2022/10/10 11:55:26;;;;;;;;;;;;;;;15.44;64.95;98177.63;5061907;28;20293;-57
2022/10/10 11:57:57;;;;;;;;;;;;;;;15.48;65.21;98175.03;5065931;28;19925;-57
2022/10/10 12:00:25;;;;;;;;;;;;;;;15.53;65.19;98167.41;5066592;28;19985;-57
2022/10/10 12:02:53;;;;;;;;;;;;;;;15.54;64.39;98174.47;5066083;28;20408;-57
2022/10/10 12:05:25;;;;;;;;;;;;;;;15.58;64.49;98177.34;5097965;28;19932;-57
2022/10/10 12:08:00;;;;;;;;;;;;;;;15.59;64.92;98171.53;5062459;28;20435;-57
2022/10/10 12:10:31;;;;;;;;;;;;;;;15.62;64.37;98170.06;5059094;28;19940;-56
2022/10/10 12:13:06;;;;;;;;;;;;;;;15.62;64.86;98165.38;5064274;28;19928;-57
2022/10/10 12:15:35;;;;;;;;;;;;;;;15.62;64.71;98173.59;5063240;28;20001;-57
2022/10/10 12:18:21;;;;;;;;;;;;;;;15.64;64.98;98163.13;5065648;28;20014;-57
2022/10/10 12:20:49;;;;;;;;;;;;;;;15.66;65.12;98166.34;5069119;28;20385;-57
2022/10/10 12:23:19;;;;;;;;;;;;;;;15.69;65.55;98154.69;5063377;28;19979;-57
2022/10/10 12:25:47;;;;;;;;;;;;;;;15.78;64.81;98162.03;5067289;28;19924;-57
2022/10/10 12:28:24;;;;;;;;;;;;;;;15.84;64.88;98160.66;5064112;28;19928;-56
2022/10/10 12:31:22;;;;;;;;;;;;;;;15.95;64.53;98161.81;5062048;28;19982;-57
2022/10/10 12:34:01;;;;;;;;;;;;;;;16.10;63.84;98158.41;5004578;28;20290;-57
2022/10/10 12:36:57;;;;;;;;;;;;;;;16.23;63.87;98156.47;5053139;28;19956;-57
2022/10/10 12:39:33;;;;;;;;;;;;;;;16.33;63.46;98147.00;5042429;28;19924;-57
2022/10/10 12:42:02;;;;;;;;;;;;;;;16.42;63.30;98150.44;5066534;28;19935;-57
2022/10/10 12:44:55;;;;;;;;;;;;;;;16.41;62.85;98146.09;5067217;28;19928;-57
2022/10/10 12:47:36;;;;;;;;;;;;;;;16.47;63.40;98148.25;5051877;28;19925;-56
2022/10/10 12:50:25;;;;;;;;;;;;;;;16.42;63.78;98153.97;5064610;28;19924;-57
2022/10/10 12:52:54;;;;;;;;;;;;;;;16.35;63.97;98148.28;5066236;28;20317;-57
2022/10/10 12:55:23;;;;;;;;;;;;;;;16.27;64.47;98145.63;5061854;28;19968;-57
2022/10/10 12:57:52;;;;;;;;;;;;;;;16.30;63.80;98140.28;5061764;28;20034;-57
2022/10/10 13:00:21;;;;;;;;;;;;;;;16.33;64.17;98145.06;5065562;28;20007;-56
2022/10/10 13:02:52;;;;;;;;;;;;;;;16.33;64.15;98136.03;5060459;28;20051;-57
2022/10/10 13:05:21;;;;;;;;;;;;;;;16.37;63.78;98134.22;5061924;28;19932;-58
2022/10/10 13:07:49;;;;;;;;;;;;;;;16.39;63.85;98140.13;5063228;28;19929;-57
2022/10/10 13:10:21;;;;;;;;;;;;;;;16.40;63.91;98139.00;5062272;28;19925;-56
2022/10/10 13:12:59;;;;;;;;;;;;;;;16.44;63.81;98131.69;5056018;28;19955;-57
2022/10/10 13:15:27;;;;;;;;;;;;;;;16.44;64.70;98135.22;5064454;28;19931;-57
2022/10/10 13:17:57;;;;;;;;;;;;;;;16.47;64.19;98134.53;5067254;28;20019;-57
2022/10/10 13:20:50;;;;;;;;;;;;;;;16.44;64.75;98124.25;5065741;28;20004;-57
2022/10/10 13:23:23;;;;;;;;;;;;;;;16.46;64.42;98126.66;5069076;28;20402;-57
2022/10/10 13:25:51;;;;;;;;;;;;;;;16.43;64.77;98132.84;5091951;28;19928;-57
2022/10/10 13:28:44;;;;;;;;;;;;;;;16.43;65.29;98128.16;5064653;28;19940;-57
2022/10/10 13:31:13;;;;;;;;;;;;;;;16.46;64.99;98126.66;5065027;28;19940;-57
2022/10/10 13:33:42;;;;;;;;;;;;;;;16.52;64.79;98135.47;5086995;28;19931;-57
2022/10/10 13:36:19;;;;;;;;;;;;;;;16.58;65.05;98128.59;5065188;28;19963;-56
2022/10/10 13:38:48;;;;;;;;;;;;;;;16.62;64.65;98127.56;5065951;28;19929;-56
2022/10/10 13:41:17;;;;;;;;;;;;;;;16.65;65.06;98121.38;5063349;28;19928;-56
2022/10/10 13:43:45;;;;;;;;;;;;;;;16.65;65.26;98124.09;5064400;28;19929;-57